Time;durP1;ratioP1;P1;durP2;ratioP2;P2;SDS_P1;SDS_P2;PMS_P1;PMS_P2;Temp;Humidity;BMP_temperature;BMP_pressure;BME280_temperature;BME280_humidity;BME280_pressure;Samples;Min_cycle;Max_cycle;Signal;HPM_P1;HPM_P2
2024/03/11 00:00:05;;;;;;;14.35;6.88;;;12.00;68.70;;;;;;5089960;28;20028;-62
2024/03/11 00:02:31;;;;;;;11.48;6.15;;;12.00;68.70;;;;;;5085604;28;20116;-62
2024/03/11 00:04:57;;;;;;;14.68;5.78;;;12.00;68.80;;;;;;5089403;28;20035;-62
2024/03/11 00:07:23;;;;;;;10.20;5.65;;;11.90;68.80;;;;;;5087476;28;20477;-62
2024/03/11 00:09:50;;;;;;;11.82;6.30;;;12.00;68.90;;;;;;5090364;28;20116;-62
2024/03/11 00:12:17;;;;;;;12.40;5.43;;;11.90;68.80;;;;;;5084453;28;20131;-62
2024/03/11 00:14:47;;;;;;;13.13;6.35;;;11.90;68.90;;;;;;5085788;28;20032;-62
2024/03/11 00:17:14;;;;;;;11.73;5.50;;;11.90;68.90;;;;;;5089582;28;20029;-64
2024/03/11 00:19:40;;;;;;;14.55;7.35;;;11.90;69.00;;;;;;5087874;28;20024;-64
2024/03/11 00:22:07;;;;;;;14.25;6.57;;;11.90;69.10;;;;;;5090675;28;20114;-64
2024/03/11 00:24:34;;;;;;;10.35;5.88;;;11.90;69.20;;;;;;5087741;28;20032;-64
2024/03/11 00:27:02;;;;;;;10.98;5.97;;;11.90;69.20;;;;;;5090122;28;20042;-62
2024/03/11 00:29:30;;;;;;;10.23;5.43;;;11.90;69.10;;;;;;5090090;28;20111;-62
2024/03/11 00:31:56;;;;;;;17.02;7.85;;;11.90;69.10;;;;;;5082649;28;20506;-62
2024/03/11 00:34:22;;;;;;;12.82;5.53;;;11.90;69.20;;;;;;5075506;28;20382;-62
2024/03/11 00:36:49;;;;;;;10.30;6.05;;;11.80;69.30;;;;;;5082291;28;20075;-62
2024/03/11 00:39:15;;;;;;;10.55;6.28;;;11.80;69.40;;;;;;5089513;28;20020;-62
2024/03/11 00:41:41;;;;;;;14.85;6.05;;;11.80;69.40;;;;;;5087257;28;20039;-62
2024/03/11 00:44:07;;;;;;;13.57;5.93;;;11.80;69.30;;;;;;5082866;28;20035;-62
2024/03/11 00:46:35;;;;;;;10.73;5.10;;;11.80;69.40;;;;;;5089693;28;20032;-62
2024/03/11 00:49:02;;;;;;;9.52;5.10;;;11.80;69.40;;;;;;5083817;28;20054;-62
2024/03/11 00:51:29;;;;;;;9.68;5.22;;;11.80;69.40;;;;;;5085501;28;20349;-62
2024/03/11 00:53:56;;;;;;;10.65;5.78;;;11.80;69.50;;;;;;5089321;28;20086;-62
2024/03/11 00:56:22;;;;;;;12.68;5.57;;;11.80;70.00;;;;;;5088311;28;20024;-62
2024/03/11 00:58:48;;;;;;;11.95;5.72;;;11.80;69.40;;;;;;5087030;28;20016;-63
2024/03/11 01:01:16;;;;;;;12.60;5.38;;;11.80;69.50;;;;;;5088531;28;20085;-62
2024/03/11 01:03:43;;;;;;;11.52;6.15;;;11.70;69.40;;;;;;5088764;28;20081;-62
2024/03/11 01:06:10;;;;;;;14.48;8.23;;;11.80;69.60;;;;;;5085235;28;20032;-62
2024/03/11 01:08:38;;;;;;;11.77;6.25;;;11.70;69.60;;;;;;5085521;28;20040;-63
2024/03/11 01:11:04;;;;;;;12.15;4.68;;;11.70;69.60;;;;;;5082600;28;20530;-62
2024/03/11 01:13:30;;;;;;;10.27;4.95;;;11.70;69.70;;;;;;5078330;28;20023;-62
2024/03/11 01:15:56;;;;;;;10.30;5.28;;;11.70;69.70;;;;;;5067013;28;20056;-62
2024/03/11 01:18:24;;;;;;;9.18;5.35;;;11.70;69.70;;;;;;5080707;28;20086;-62
2024/03/11 01:20:51;;;;;;;9.10;5.20;;;11.70;69.80;;;;;;5083675;28;20031;-62
2024/03/11 01:23:20;;;;;;;11.40;5.13;;;11.60;69.80;;;;;;5085335;28;20027;-63
2024/03/11 01:25:46;;;;;;;13.70;5.75;;;11.70;69.80;;;;;;5077804;28;20119;-62
2024/03/11 01:28:12;;;;;;;9.13;5.82;;;11.70;69.80;;;;;;5087552;28;20113;-62
2024/03/11 01:30:38;;;;;;;11.93;6.88;;;11.70;69.80;;;;;;5077221;28;20033;-62
2024/03/11 01:33:05;;;;;;;12.95;6.07;;;11.70;69.80;;;;;;5085360;28;20027;-62
2024/03/11 01:35:32;;;;;;;11.05;5.35;;;11.70;69.80;;;;;;5080943;28;20028;-62
2024/03/11 01:37:58;;;;;;;14.25;5.75;;;11.70;69.80;;;;;;5083140;28;20055;-64
2024/03/11 01:40:27;;;;;;;13.85;7.90;;;11.70;69.80;;;;;;5070625;28;20024;-64
2024/03/11 01:42:54;;;;;;;11.00;5.43;;;11.70;69.80;;;;;;5078229;28;20044;-64
2024/03/11 01:45:23;;;;;;;14.75;5.40;;;11.70;69.90;;;;;;5081921;28;20364;-64
2024/03/11 01:47:50;;;;;;;11.82;6.00;;;11.70;69.90;;;;;;5071979;28;20031;-64
2024/03/11 01:50:16;;;;;;;10.73;6.13;;;11.70;69.90;;;;;;5080371;28;20048;-64
2024/03/11 01:52:50;;;;;;;12.68;5.97;;;11.70;70.00;;;;;;5085670;28;20042;-64
2024/03/11 01:55:18;;;;;;;13.60;5.97;;;11.70;70.00;;;;;;5077968;28;20036;-64
2024/03/11 01:57:46;;;;;;;14.60;7.05;;;11.70;70.10;;;;;;5088227;28;20500;-64
2024/03/11 02:00:13;;;;;;;12.98;6.07;;;11.70;70.20;;;;;;5087325;28;20019;-64
2024/03/11 02:02:39;;;;;;;10.48;4.95;;;11.70;70.20;;;;;;5088591;28;20113;-64
2024/03/11 02:05:13;;;;;;;12.35;6.65;;;11.70;70.20;;;;;;5083095;28;20029;-64
2024/03/11 02:07:44;;;;;;;9.75;4.88;;;11.70;70.30;;;;;;5082109;28;20427;-64
2024/03/11 02:10:13;;;;;;;10.10;5.03;;;11.70;70.20;;;;;;5080221;28;20395;-64
2024/03/11 02:12:45;;;;;;;11.00;5.35;;;11.70;70.80;;;;;;5083109;28;20066;-64
2024/03/11 02:15:12;;;;;;;7.20;4.30;;;11.70;70.30;;;;;;5088278;28;20048;-64
2024/03/11 02:17:40;;;;;;;16.77;6.70;;;11.70;70.40;;;;;;5074898;28;20464;-64
2024/03/11 02:20:16;;;;;;;14.48;6.25;;;11.70;70.50;;;;;;5080191;28;20399;-64
2024/03/11 02:22:47;;;;;;;13.30;5.75;;;11.70;70.70;;;;;;5081918;28;20085;-64
2024/03/11 02:25:18;;;;;;;10.60;5.50;;;11.60;70.70;;;;;;5088173;28;20028;-64
2024/03/11 02:27:47;;;;;;;13.50;6.32;;;11.60;70.90;;;;;;5085905;28;20028;-63
2024/03/11 02:30:15;;;;;;;12.82;6.75;;;11.60;71.10;;;;;;5078863;28;20032;-62
2024/03/11 02:32:42;;;;;;;15.15;7.10;;;11.60;71.20;;;;;;5084767;28;20127;-62
2024/03/11 02:35:09;;;;;;;13.88;6.75;;;11.60;71.40;;;;;;5087437;28;20107;-62
2024/03/11 02:37:35;;;;;;;15.18;6.75;;;11.60;71.50;;;;;;5084342;28;20032;-62
2024/03/11 02:40:08;;;;;;;12.57;6.28;;;11.50;71.60;;;;;;5082576;28;20453;-62
2024/03/11 02:42:34;;;;;;;12.30;6.13;;;11.50;71.70;;;;;;5078672;28;20031;-62
2024/03/11 02:45:11;;;;;;;14.30;6.22;;;11.50;71.80;;;;;;5092506;28;20016;-62
2024/03/11 02:47:38;;;;;;;11.77;6.60;;;11.50;71.80;;;;;;5085263;28;20519;-62
2024/03/11 02:50:05;;;;;;;12.30;5.95;;;11.50;72.50;;;;;;5079027;28;20070;-62
2024/03/11 02:52:38;;;;;;;13.15;6.88;;;11.50;72.00;;;;;;5085949;28;20803;-62
2024/03/11 02:55:06;;;;;;;13.30;6.47;;;11.50;72.20;;;;;;5087591;28;20027;-62
2024/03/11 02:57:35;;;;;;;15.40;6.63;;;11.40;72.30;;;;;;5090912;28;20111;-62
2024/03/11 03:00:02;;;;;;;13.65;6.72;;;11.50;72.40;;;;;;5086167;28;20107;-62
2024/03/11 03:02:28;;;;;;;14.52;7.82;;;11.40;72.40;;;;;;5085799;28;20351;-62
2024/03/11 03:04:55;;;;;;;13.98;6.72;;;11.40;72.60;;;;;;5091894;28;20036;-62
2024/03/11 03:07:24;;;;;;;13.68;6.65;;;11.40;72.70;;;;;;5087811;28;20036;-62
2024/03/11 03:09:50;;;;;;;16.25;6.38;;;11.40;72.80;;;;;;5085120;28;20059;-63
2024/03/11 03:12:18;;;;;;;15.25;6.35;;;11.40;72.80;;;;;;5091482;28;20028;-62
2024/03/11 03:14:44;;;;;;;12.38;5.80;;;11.40;72.90;;;;;;5085515;28;20048;-63
2024/03/11 03:17:10;;;;;;;12.15;5.90;;;11.30;73.00;;;;;;5090494;28;20058;-62
2024/03/11 03:19:36;;;;;;;12.98;6.15;;;11.40;73.20;;;;;;5088853;28;20539;-63
2024/03/11 03:22:02;;;;;;;12.60;6.68;;;11.30;73.20;;;;;;5086751;28;20020;-62
2024/03/11 03:24:29;;;;;;;10.48;4.45;;;11.30;73.30;;;;;;5086925;28;20028;-63
2024/03/11 03:26:55;;;;;;;9.57;5.53;;;11.30;73.40;;;;;;5081062;28;20028;-63
2024/03/11 03:29:21;;;;;;;14.32;6.70;;;11.30;73.40;;;;;;5082907;28;20047;-63
2024/03/11 03:31:48;;;;;;;12.65;7.13;;;11.30;73.50;;;;;;5080249;28;20036;-63
2024/03/11 03:34:14;;;;;;;14.57;6.72;;;11.30;73.70;;;;;;5082995;28;20035;-65
2024/03/11 03:36:40;;;;;;;9.93;5.13;;;11.30;73.90;;;;;;5090634;28;20041;-64
2024/03/11 03:39:08;;;;;;;12.75;5.88;;;11.30;73.90;;;;;;5087420;28;20107;-64
2024/03/11 03:41:38;;;;;;;12.10;5.47;;;11.20;73.90;;;;;;5090772;28;20035;-65
2024/03/11 03:44:05;;;;;;;12.82;6.80;;;11.30;74.00;;;;;;5089969;28;20047;-64
2024/03/11 03:46:31;;;;;;;11.95;5.57;;;11.20;74.00;;;;;;5078549;28;20169;-65
2024/03/11 03:48:58;;;;;;;15.35;7.50;;;11.20;74.10;;;;;;5089569;28;20110;-65
2024/03/11 03:51:24;;;;;;;11.85;5.88;;;11.20;74.20;;;;;;5073087;28;20340;-64
2024/03/11 03:53:51;;;;;;;13.70;6.53;;;11.20;74.30;;;;;;5084305;28;20162;-65
2024/03/11 03:56:17;;;;;;;15.18;5.75;;;11.20;74.40;;;;;;5086538;28;20061;-65
2024/03/11 03:58:44;;;;;;;10.43;5.82;;;11.20;74.50;;;;;;5088283;28;20032;-65
2024/03/11 04:01:10;;;;;;;14.88;6.40;;;11.20;74.60;;;;;;5083250;28;20070;-65
2024/03/11 04:03:36;;;;;;;10.90;6.05;;;11.20;74.70;;;;;;5088914;28;20036;-65
2024/03/11 04:06:05;;;;;;;11.98;6.43;;;11.20;74.80;;;;;;5079712;28;20028;-65
2024/03/11 04:08:32;;;;;;;12.38;6.65;;;11.20;75.00;;;;;;5090002;28;20696;-65
2024/03/11 04:10:58;;;;;;;12.77;6.10;;;11.10;75.10;;;;;;5089159;28;20028;-65
2024/03/11 04:13:26;;;;;;;14.77;7.03;;;11.10;75.20;;;;;;5072047;28;20032;-64
2024/03/11 04:15:56;;;;;;;12.82;7.22;;;11.10;75.30;;;;;;5081063;28;20123;-64
2024/03/11 04:18:24;;;;;;;14.70;7.95;;;11.00;75.30;;;;;;5083313;28;20415;-63
2024/03/11 04:20:55;;;;;;;12.32;6.28;;;11.00;75.50;;;;;;5079754;28;20021;-63
2024/03/11 04:23:27;;;;;;;16.58;7.55;;;11.10;75.70;;;;;;5088471;28;20403;-63
2024/03/11 04:25:53;;;;;;;10.90;5.15;;;11.00;75.70;;;;;;5090802;28;20024;-63
2024/03/11 04:28:19;;;;;;;12.00;5.88;;;11.00;75.70;;;;;;5085882;28;20040;-63
2024/03/11 04:30:45;;;;;;;15.57;7.53;;;10.90;75.80;;;;;;5082015;28;20039;-63
2024/03/11 04:33:16;;;;;;;16.23;7.22;;;10.90;75.90;;;;;;5083299;28;20106;-63
2024/03/11 04:35:43;;;;;;;14.60;6.72;;;10.90;76.00;;;;;;5073441;28;20080;-63
2024/03/11 04:38:10;;;;;;;14.23;6.20;;;10.90;76.10;;;;;;5074814;28;20048;-63
2024/03/11 04:40:38;;;;;;;14.77;5.97;;;10.90;76.20;;;;;;5077651;28;20028;-63
2024/03/11 04:43:05;;;;;;;13.27;5.65;;;10.80;76.20;;;;;;5089626;28;20489;-63
2024/03/11 04:45:31;;;;;;;12.80;6.15;;;10.80;76.30;;;;;;5088656;28;20028;-63
2024/03/11 04:48:00;;;;;;;15.05;6.60;;;10.80;76.30;;;;;;5089602;28;20028;-64
2024/03/11 04:50:31;;;;;;;16.80;7.07;;;10.80;76.30;;;;;;5076653;28;20059;-63
2024/03/11 04:53:02;;;;;;;14.57;6.30;;;10.80;76.40;;;;;;5079042;28;20032;-63
2024/03/11 04:55:30;;;;;;;16.47;7.57;;;10.80;76.60;;;;;;5081497;28;20040;-63
2024/03/11 04:57:57;;;;;;;13.65;6.15;;;10.80;76.60;;;;;;5085295;28;20133;-63
2024/03/11 05:00:26;;;;;;;13.10;6.80;;;10.80;76.70;;;;;;5087693;28;20515;-63
2024/03/11 05:02:59;;;;;;;13.13;5.85;;;10.80;76.70;;;;;;5082941;28;20406;-63
2024/03/11 05:05:27;;;;;;;13.73;7.63;;;10.80;76.80;;;;;;5082228;28;20024;-63
2024/03/11 05:07:53;;;;;;;12.35;6.43;;;10.80;76.90;;;;;;5081941;28;20036;-64
2024/03/11 05:10:19;;;;;;;14.70;6.47;;;10.80;76.80;;;;;;5089519;28;20028;-63
2024/03/11 05:12:47;;;;;;;11.82;6.18;;;10.80;76.80;;;;;;5086270;28;20119;-63
2024/03/11 05:15:13;;;;;;;13.18;6.70;;;10.80;77.00;;;;;;5076920;28;20048;-63
2024/03/11 05:17:40;;;;;;;12.38;5.82;;;10.80;77.00;;;;;;5088190;28;20036;-63
2024/03/11 05:20:11;;;;;;;15.95;6.78;;;10.70;77.00;;;;;;5083699;28;20020;-64
2024/03/11 05:22:37;;;;;;;13.77;6.28;;;10.70;77.10;;;;;;5078516;28;20024;-63
2024/03/11 05:25:08;;;;;;;12.15;6.65;;;10.70;77.20;;;;;;5083719;28;20059;-65
2024/03/11 05:27:35;;;;;;;13.82;6.40;;;10.70;77.30;;;;;;5086980;28;20415;-65
2024/03/11 05:30:04;;;;;;;12.35;6.10;;;10.70;77.30;;;;;;5080753;28;20035;-65
2024/03/11 05:32:31;;;;;;;12.57;6.13;;;10.70;77.40;;;;;;5086561;28;20032;-65
2024/03/11 05:34:58;;;;;;;14.30;6.95;;;10.70;77.30;;;;;;5082145;28;20486;-65
2024/03/11 05:37:26;;;;;;;14.50;7.75;;;10.70;77.40;;;;;;5081935;28;20099;-65
2024/03/11 05:39:55;;;;;;;18.27;7.40;;;10.70;77.50;;;;;;5081385;28;20099;-65
2024/03/11 05:42:22;;;;;;;14.05;6.75;;;10.70;77.50;;;;;;5081181;28;20391;-63
2024/03/11 05:44:49;;;;;;;11.15;5.70;;;10.70;77.60;;;;;;5086237;28;20063;-64
2024/03/11 05:47:15;;;;;;;14.07;6.30;;;10.70;77.60;;;;;;5083477;28;20040;-65
2024/03/11 05:49:42;;;;;;;12.95;6.85;;;10.60;77.60;;;;;;5086566;28;20058;-65
2024/03/11 05:52:09;;;;;;;12.00;6.53;;;10.70;77.70;;;;;;5082453;28;20052;-64
2024/03/11 05:54:38;;;;;;;13.43;6.32;;;10.70;78.30;;;;;;5081147;28;20047;-65
2024/03/11 05:57:05;;;;;;;10.65;6.15;;;10.70;77.70;;;;;;5083864;28;20645;-65
2024/03/11 05:59:31;;;;;;;10.90;5.40;;;10.70;77.70;;;;;;5078561;28;20036;-65
2024/03/11 06:01:57;;;;;;;12.30;6.80;;;10.70;77.70;;;;;;5084243;28;20016;-65
2024/03/11 06:04:27;;;;;;;11.38;6.55;;;10.70;77.80;;;;;;5078957;28;20032;-64
2024/03/11 06:06:53;;;;;;;14.60;6.80;;;10.70;77.80;;;;;;5083123;28;20443;-65
2024/03/11 06:09:19;;;;;;;14.43;6.03;;;10.70;77.80;;;;;;5077452;28;20585;-65
2024/03/11 06:11:47;;;;;;;15.90;5.95;;;10.70;77.80;;;;;;5086271;28;20107;-64
2024/03/11 06:14:13;;;;;;;14.63;6.13;;;10.70;77.90;;;;;;5087037;28;20028;-64
2024/03/11 06:16:39;;;;;;;12.63;5.85;;;10.70;77.90;;;;;;5090001;28;20032;-64
2024/03/11 06:19:08;;;;;;;12.65;5.88;;;10.70;77.90;;;;;;5090771;28;20153;-65
2024/03/11 06:21:35;;;;;;;12.27;6.35;;;10.70;77.90;;;;;;5089014;28;20028;-64
2024/03/11 06:24:01;;;;;;;12.88;6.35;;;10.70;78.00;;;;;;5091961;28;20514;-64
2024/03/11 06:26:28;;;;;;;12.05;6.07;;;10.70;78.10;;;;;;5094565;28;20019;-64
2024/03/11 06:28:55;;;;;;;9.38;4.72;;;10.70;78.00;;;;;;5090152;28;20104;-64
2024/03/11 06:31:24;;;;;;;12.10;5.53;;;10.70;78.00;;;;;;5083163;28;20095;-64
2024/03/11 06:33:51;;;;;;;13.10;6.28;;;10.70;78.00;;;;;;5093476;28;20398;-64
2024/03/11 06:36:17;;;;;;;9.50;5.70;;;10.80;78.00;;;;;;5092865;28;20428;-64
2024/03/11 06:38:48;;;;;;;9.35;4.72;;;10.80;77.90;;;;;;5085403;28;20402;-66
2024/03/11 06:41:15;;;;;;;13.65;6.10;;;10.80;78.00;;;;;;5095484;28;20094;-64
2024/03/11 06:43:41;;;;;;;15.18;7.57;;;10.80;78.00;;;;;;5095549;28;20032;-66
2024/03/11 06:46:07;;;;;;;10.65;5.57;;;10.80;78.00;;;;;;5091011;28;20554;-65
2024/03/11 06:48:34;;;;;;;15.20;7.13;;;10.80;77.90;;;;;;5094788;28;20047;-64
2024/03/11 06:51:00;;;;;;;12.48;5.78;;;10.80;78.00;;;;;;5081922;28;20086;-66
2024/03/11 06:53:26;;;;;;;12.57;6.20;;;10.80;77.90;;;;;;5090546;28;20382;-65
2024/03/11 06:55:51;;;;;;;9.15;5.65;;;10.80;77.90;;;;;;5094269;28;20035;-64
2024/03/11 06:58:18;;;;;;;13.27;6.63;;;10.80;78.00;;;;;;5094977;28;20046;-64
2024/03/11 07:00:43;;;;;;;9.85;5.57;;;10.80;78.00;;;;;;5089946;28;20082;-64
2024/03/11 07:03:09;;;;;;;11.95;6.53;;;10.80;78.10;;;;;;5089503;28;20352;-65
2024/03/11 07:05:35;;;;;;;10.98;5.40;;;10.80;78.10;;;;;;5088196;28;20060;-65
2024/03/11 07:08:06;;;;;;;11.38;5.63;;;10.80;78.10;;;;;;5094253;28;20077;-65
2024/03/11 07:10:32;;;;;;;11.90;6.15;;;10.80;78.10;;;;;;5083528;28;20039;-66
2024/03/11 07:12:58;;;;;;;14.15;7.18;;;10.80;78.10;;;;;;5090729;28;20055;-66
2024/03/11 07:15:25;;;;;;;15.63;6.88;;;10.80;78.20;;;;;;5091503;28;20566;-66
2024/03/11 07:17:51;;;;;;;13.15;5.80;;;10.80;78.30;;;;;;5089604;28;20159;-66
2024/03/11 07:20:17;;;;;;;15.77;5.70;;;10.70;78.40;;;;;;5091180;28;20096;-65
2024/03/11 07:22:45;;;;;;;14.60;7.60;;;10.80;78.60;;;;;;5092935;28;20028;-64
2024/03/11 07:25:11;;;;;;;13.15;6.28;;;10.70;78.70;;;;;;5093890;28;20036;-64
2024/03/11 07:27:38;;;;;;;13.90;6.65;;;10.70;78.70;;;;;;5087713;28;20078;-64
2024/03/11 07:30:06;;;;;;;12.70;6.18;;;10.80;78.70;;;;;;5082818;28;20125;-64
2024/03/11 07:32:33;;;;;;;13.30;6.55;;;10.70;78.80;;;;;;5083217;28;20025;-64
2024/03/11 07:34:59;;;;;;;11.38;6.30;;;10.70;78.90;;;;;;5086475;28;20025;-65
2024/03/11 07:37:25;;;;;;;14.32;6.32;;;10.70;79.00;;;;;;5090834;28;20032;-65
2024/03/11 07:39:54;;;;;;;13.55;6.65;;;10.70;79.00;;;;;;5088898;28;20024;-66
2024/03/11 07:42:23;;;;;;;12.07;5.90;;;10.70;79.10;;;;;;5081999;28;20052;-64
2024/03/11 07:44:49;;;;;;;13.02;6.07;;;10.70;79.10;;;;;;5082579;28;20028;-64
2024/03/11 07:47:15;;;;;;;10.00;5.97;;;10.70;79.10;;;;;;5088099;28;20040;-64
2024/03/11 07:49:42;;;;;;;15.48;6.18;;;10.70;79.20;;;;;;5069789;28;20041;-65
2024/03/11 07:52:09;;;;;;;14.70;6.25;;;10.70;79.20;;;;;;5091237;28;20024;-64
2024/03/11 07:54:35;;;;;;;10.88;6.32;;;10.70;79.20;;;;;;5069640;28;20123;-64
2024/03/11 07:57:01;;;;;;;12.68;6.03;;;10.70;79.20;;;;;;5086624;28;20456;-64
2024/03/11 07:59:26;;;;;;;8.43;4.72;;;10.70;79.30;;;;;;5085498;28;20040;-64
2024/03/11 08:01:52;;;;;;;9.82;5.03;;;10.70;79.30;;;;;;5083926;28;20076;-64
2024/03/11 08:04:18;;;;;;;11.38;5.60;;;10.60;79.40;;;;;;5085543;28;20036;-63
2024/03/11 08:06:44;;;;;;;12.15;5.63;;;10.60;79.30;;;;;;5089030;28;20577;-64
2024/03/11 08:09:10;;;;;;;12.07;5.78;;;10.60;79.30;;;;;;5087603;28;20118;-64
2024/03/11 08:11:36;;;;;;;9.85;4.28;;;10.70;79.40;;;;;;5084576;28;20158;-63
2024/03/11 08:14:02;;;;;;;12.98;6.03;;;10.70;79.30;;;;;;5090259;28;20439;-65
2024/03/11 08:16:28;;;;;;;13.32;6.15;;;10.70;79.40;;;;;;5086365;28;20040;-64
2024/03/11 08:18:54;;;;;;;12.35;5.35;;;10.70;79.40;;;;;;5087443;28;20107;-64
2024/03/11 08:21:20;;;;;;;11.48;4.88;;;10.70;79.40;;;;;;5085646;28;20527;-63
2024/03/11 08:23:46;;;;;;;16.85;6.40;;;10.70;79.40;;;;;;5080799;28;20075;-65
2024/03/11 08:26:13;;;;;;;13.00;6.18;;;10.70;79.40;;;;;;5070348;28;20066;-66
2024/03/11 08:28:40;;;;;;;12.98;5.72;;;10.70;79.50;;;;;;5084302;28;20137;-66
2024/03/11 08:31:10;;;;;;;12.30;6.00;;;10.70;79.40;;;;;;5083004;28;20395;-67
2024/03/11 08:33:36;;;;;;;15.65;7.65;;;10.70;79.50;;;;;;5081364;28;20103;-65
2024/03/11 08:36:05;;;;;;;13.40;6.75;;;10.70;79.50;;;;;;5083794;28;20540;-65
2024/03/11 08:38:32;;;;;;;12.48;6.85;;;10.60;79.60;;;;;;5072599;28;20455;-66
2024/03/11 08:40:59;;;;;;;13.20;6.38;;;10.60;79.60;;;;;;5086749;28;20517;-66
2024/03/11 08:43:26;;;;;;;12.55;5.95;;;10.70;79.70;;;;;;5090596;28;20487;-63
2024/03/11 08:45:52;;;;;;;16.80;7.00;;;10.60;79.60;;;;;;5078019;28;20593;-63
2024/03/11 08:48:18;;;;;;;13.00;7.13;;;10.60;79.70;;;;;;5082212;28;20020;-63
2024/03/11 08:50:43;;;;;;;15.90;7.53;;;10.70;79.80;;;;;;5086221;28;20055;-63
2024/03/11 08:53:10;;;;;;;14.48;7.00;;;10.70;79.70;;;;;;5087630;28;20542;-63
2024/03/11 08:55:35;;;;;;;11.65;6.57;;;10.70;79.70;;;;;;5075936;28;20086;-63
2024/03/11 08:58:05;;;;;;;14.68;6.85;;;10.70;79.80;;;;;;5083554;28;20041;-63
2024/03/11 09:00:31;;;;;;;15.65;6.60;;;10.60;79.70;;;;;;5076908;28;20047;-63
2024/03/11 09:02:57;;;;;;;13.02;6.55;;;10.60;79.80;;;;;;5078731;28;20021;-63
2024/03/11 09:05:23;;;;;;;15.70;7.22;;;10.70;79.80;;;;;;5083947;28;20421;-63
2024/03/11 09:07:51;;;;;;;16.23;6.18;;;10.70;79.80;;;;;;5065840;28;20043;-63
2024/03/11 09:10:17;;;;;;;13.63;6.88;;;10.70;79.80;;;;;;5079533;28;20115;-63
2024/03/11 09:12:44;;;;;;;15.65;6.75;;;10.70;79.80;;;;;;5075479;28;20089;-63
2024/03/11 09:15:17;;;;;;;12.93;6.18;;;10.70;79.80;;;;;;5078619;28;20645;-63
2024/03/11 09:17:50;;;;;;;14.25;7.68;;;10.70;79.70;;;;;;5075294;28;20028;-63
2024/03/11 09:20:17;;;;;;;14.57;7.00;;;10.80;79.90;;;;;;5076814;28;20028;-63
2024/03/11 09:22:55;;;;;;;12.00;6.00;;;10.70;79.90;;;;;;5075638;28;20471;-63
2024/03/11 09:25:24;;;;;;;17.42;6.55;;;10.80;79.90;;;;;;5072201;28;20037;-63
2024/03/11 09:28:01;;;;;;;14.25;6.47;;;10.70;79.80;;;;;;5082500;28;20482;-63
2024/03/11 09:30:35;;;;;;;12.05;6.00;;;10.80;79.80;;;;;;5071085;28;20028;-66
2024/03/11 09:33:01;;;;;;;11.85;6.18;;;10.80;79.90;;;;;;5075830;28;20432;-63
2024/03/11 09:35:28;;;;;;;16.38;7.53;;;10.80;79.80;;;;;;5083634;28;20478;-63
2024/03/11 09:37:54;;;;;;;15.52;7.57;;;10.80;79.70;;;;;;5075834;28;20103;-63
2024/03/11 09:40:26;;;;;;;11.65;6.32;;;10.90;79.80;;;;;;5083254;28;20099;-66
2024/03/11 09:42:56;;;;;;;14.63;6.88;;;10.80;79.80;;;;;;5077744;28;20035;-65
2024/03/11 09:45:26;;;;;;;16.58;6.55;;;10.90;79.90;;;;;;5072968;28;20179;-63
2024/03/11 09:47:55;;;;;;;11.15;6.30;;;10.80;79.70;;;;;;5070620;28;20050;-63
2024/03/11 09:50:30;;;;;;;13.52;6.68;;;10.80;79.80;;;;;;5078791;28;20031;-63
2024/03/11 09:53:03;;;;;;;16.85;6.53;;;10.80;79.80;;;;;;5078791;28;20074;-63
2024/03/11 09:55:30;;;;;;;14.77;6.50;;;10.80;79.90;;;;;;5074957;28;20462;-63
2024/03/11 09:58:12;;;;;;;12.90;6.40;;;10.80;79.90;;;;;;5073203;28;20104;-63
2024/03/11 10:00:48;;;;;;;16.97;6.73;;;10.80;79.90;;;;;;5082028;28;20024;-65
2024/03/11 10:03:16;;;;;;;11.80;6.05;;;10.80;79.90;;;;;;5076551;28;20483;-66
2024/03/11 10:05:44;;;;;;;11.27;6.05;;;10.80;79.90;;;;;;5077098;28;20036;-63
2024/03/11 10:08:11;;;;;;;13.73;6.60;;;10.80;79.90;;;;;;5076748;28;20054;-63
2024/03/11 10:10:38;;;;;;;18.85;8.05;;;10.80;79.80;;;;;;5080749;28;20115;-63
2024/03/11 10:13:05;;;;;;;15.93;6.82;;;10.90;79.90;;;;;;5074599;28;20034;-63
2024/03/11 10:15:34;;;;;;;14.93;6.68;;;10.90;80.00;;;;;;5081472;28;20048;-62
2024/03/11 10:18:09;;;;;;;13.80;6.40;;;10.80;80.00;;;;;;5074046;28;20052;-63
2024/03/11 10:20:34;;;;;;;14.65;7.15;;;10.90;80.00;;;;;;5079872;28;20475;-62
2024/03/11 10:23:07;;;;;;;13.98;7.22;;;10.90;80.10;;;;;;5078874;28;20103;-63
2024/03/11 10:25:34;;;;;;;;;;;10.90;80.10;;;;;;5080618;28;20024;-62
2024/03/11 10:28:03;;;;;;;12.77;6.60;;;10.80;80.00;;;;;;5077896;28;19908;-62
2024/03/11 10:30:31;;;;;;;14.05;7.25;;;10.80;80.10;;;;;;5085123;28;20028;-66
2024/03/11 10:33:01;;;;;;;15.82;5.90;;;10.80;80.10;;;;;;5084726;28;20024;-66
2024/03/11 10:35:33;;;;;;;12.88;5.50;;;10.80;80.10;;;;;;5083186;28;20086;-66
2024/03/11 10:38:12;;;;;;;;;;;10.80;80.20;;;;;;5073049;28;20654;-66
2024/03/11 10:40:38;;;;;;;11.02;5.30;;;10.80;80.10;;;;;;5077137;28;19908;-66
2024/03/11 10:43:21;;;;;;;10.70;6.45;;;10.80;80.10;;;;;;5081537;28;20035;-63
2024/03/11 10:45:50;;;;;;;14.02;6.68;;;10.80;80.10;;;;;;5080261;28;20047;-63
2024/03/11 10:48:16;;;;;;;13.90;6.28;;;10.80;80.10;;;;;;5070582;28;20036;-63
2024/03/11 10:50:42;;;;;;;14.98;7.88;;;10.80;80.10;;;;;;5083233;28;20416;-63
2024/03/11 10:53:21;;;;;;;16.42;6.22;;;10.80;80.10;;;;;;5082628;28;20474;-63
2024/03/11 10:55:55;;;;;;;13.35;7.38;;;10.80;80.00;;;;;;5082051;28;20025;-63
2024/03/11 10:58:26;;;;;;;14.75;6.32;;;10.90;80.10;;;;;;5086167;28;20092;-63
2024/03/11 11:01:00;;;;;;;12.43;5.28;;;10.80;80.00;;;;;;5081016;28;20470;-63
2024/03/11 11:03:26;;;;;;;16.55;6.63;;;10.80;80.10;;;;;;5080853;28;20020;-63
2024/03/11 11:05:57;;;;;;;14.90;6.72;;;10.80;80.10;;;;;;5083934;28;20094;-63
2024/03/11 11:08:29;;;;;;;14.63;6.50;;;10.80;80.20;;;;;;5082363;28;20032;-63
2024/03/11 11:10:59;;;;;;;14.93;6.53;;;10.80;80.20;;;;;;5082198;28;20051;-63
2024/03/11 11:13:33;;;;;;;15.98;7.32;;;10.80;80.30;;;;;;5082225;28;20028;-63
2024/03/11 11:16:03;;;;;;;13.02;6.63;;;10.80;80.30;;;;;;5089223;28;20567;-63
2024/03/11 11:18:33;;;;;;;12.27;6.32;;;10.80;80.30;;;;;;5083985;28;20100;-66
2024/03/11 11:20:59;;;;;;;14.40;6.63;;;10.80;80.40;;;;;;5079533;28;20210;-66
2024/03/11 11:23:34;;;;;;;10.23;5.82;;;10.90;80.30;;;;;;5083132;28;20031;-66
2024/03/11 11:26:01;;;;;;;15.40;6.35;;;10.90;80.30;;;;;;5076219;28;21694;-66
2024/03/11 11:28:37;;;;;;;10.15;5.75;;;10.90;80.20;;;;;;5088114;28;20387;-66
2024/03/11 11:31:27;;;;;;;15.13;6.15;;;10.90;80.30;;;;;;5089062;28;20028;-66
2024/03/11 11:34:04;;;;;;;12.48;6.68;;;10.90;80.40;;;;;;5086291;28;20043;-66
2024/03/11 11:36:30;;;;;;;15.27;6.38;;;10.90;80.40;;;;;;5084656;28;20047;-63
2024/03/11 11:38:58;;;;;;;14.63;6.07;;;10.90;80.40;;;;;;5084924;28;20478;-63
2024/03/11 11:41:36;;;;;;;10.10;4.90;;;11.00;80.40;;;;;;5089765;28;20020;-62
2024/03/11 11:44:03;;;;;;;16.70;6.38;;;11.00;80.50;;;;;;5078416;28;20031;-65
2024/03/11 11:46:48;;;;;;;15.82;6.45;;;11.00;80.30;;;;;;5083811;28;20451;-62
2024/03/11 11:49:16;;;;;;;15.25;6.43;;;11.00;80.40;;;;;;5084595;28;20436;-65
2024/03/11 11:51:44;;;;;;;11.02;5.60;;;11.00;80.50;;;;;;5088215;28;20032;-63
2024/03/11 11:54:19;;;;;;;13.02;5.88;;;11.00;80.50;;;;;;5085115;28;20028;-63
2024/03/11 11:56:46;;;;;;;12.80;5.75;;;11.00;80.60;;;;;;5083036;28;20101;-63
2024/03/11 11:59:17;;;;;;;11.48;5.53;;;10.90;80.60;;;;;;5081293;28;20020;-63
2024/03/11 12:01:50;;;;;;;13.80;5.80;;;11.00;80.70;;;;;;5082691;28;20020;-63
2024/03/11 12:04:16;;;;;;;13.43;5.93;;;11.00;80.60;;;;;;5082199;28;20494;-63
2024/03/11 12:06:42;;;;;;;13.52;6.55;;;11.10;80.70;;;;;;5084025;28;20035;-63
2024/03/11 12:09:16;;;;;;;11.70;5.82;;;11.10;80.60;;;;;;5077600;28;20028;-63
2024/03/11 12:11:49;;;;;;;17.23;6.85;;;11.20;80.50;;;;;;5085500;28;20146;-64
2024/03/11 12:14:15;;;;;;;12.52;6.40;;;11.20;80.50;;;;;;5079805;28;20046;-63
2024/03/11 12:16:45;;;;;;;13.55;6.45;;;11.20;80.60;;;;;;5087910;28;20032;-63
2024/03/11 12:19:11;;;;;;;16.67;6.47;;;11.20;80.50;;;;;;5084192;28;20119;-63
2024/03/11 12:21:44;;;;;;;11.98;4.97;;;11.20;80.60;;;;;;5083467;28;20139;-66
2024/03/11 12:24:14;;;;;;;15.40;6.85;;;11.20;80.60;;;;;;5082146;28;20035;-66
2024/03/11 12:26:45;;;;;;;11.18;6.68;;;11.10;80.70;;;;;;5073575;28;20246;-67
2024/03/11 12:29:15;;;;;;;12.77;5.80;;;11.10;80.70;;;;;;5087005;28;20040;-67
2024/03/11 12:31:42;;;;;;;13.70;5.95;;;11.20;81.00;;;;;;5077979;28;20031;-63
2024/03/11 12:34:15;;;;;;;13.95;5.63;;;11.20;80.60;;;;;;5078973;28;20024;-63
2024/03/11 12:36:48;;;;;;;11.52;6.05;;;11.20;80.50;;;;;;5082228;28;20028;-63
2024/03/11 12:39:33;;;;;;;10.40;5.80;;;11.10;80.60;;;;;;5083215;28;20043;-63
2024/03/11 12:42:00;;;;;;;15.10;7.45;;;11.10;80.60;;;;;;5089787;28;20463;-63